Terminal Aerodrome Forecast
Issued by NWS Buffalo, NY

Home | Current Version | Previous Version | Text Only | Print | Product List | Glossary On
Versions: 1 2 3 4 5 6 7 8 9 10 11 12 13 14 15 16 17 18 19 20 21 22 23 24 25 26
000
FTUS41 KBUF 160300 AAB
TAFROC
TAF AMD
KROC 160317Z 1603/1624 00000KT P6SM -RA BKN040 BKN050 OVC070
     FM160400 24005KT 6SM -RA SCT035 OVC050
     FM160500 22005KT 4SM -RA SCT025 OVC050
     FM160700 23005KT P6SM -RA SCT025 OVC045
     FM160900 25006KT P6SM BKN020 BKN100
     FM161000 26007KT P6SM SCT100 BKN250
     FM161200 31010KT P6SM SCT100 BKN250=

USA.gov is the U.S. government's official web portal to all federal, state and local government web resources and services.